Time;durP1;ratioP1;P1;durP2;ratioP2;P2;SDS_P1;SDS_P2;PMS_P1;PMS_P2;Temp;Humidity;BMP_temperature;BMP_pressure;BME280_temperature;BME280_humidity;BME280_pressure;Samples;Min_cycle;Max_cycle;Signal;HPM_P1;HPM_P2
2023/06/03 00:02:05;;;;;;;7.10;3.03;;;20.50;50.00;;;;;;5012083;28;20191;-75
2023/06/03 00:04:33;;;;;;;6.70;3.37;;;20.50;50.20;;;;;;5012916;28;20198;-76
2023/06/03 00:07:00;;;;;;;6.30;3.47;;;20.50;50.40;;;;;;5007330;28;20203;-76
2023/06/03 00:09:27;;;;;;;9.60;3.83;;;20.40;50.60;;;;;;5016096;28;20231;-76
2023/06/03 00:11:54;;;;;;;7.63;3.47;;;20.40;50.90;;;;;;5012423;28;20681;-76
2023/06/03 00:14:21;;;;;;;5.07;3.20;;;20.30;50.80;;;;;;5012584;28;20204;-71
2023/06/03 00:16:48;;;;;;;3.87;2.57;;;20.30;50.90;;;;;;4988323;28;20234;-81
2023/06/03 00:19:16;;;;;;;5.13;3.03;;;20.20;50.80;;;;;;5009552;28;20211;-80
2023/06/03 00:21:46;;;;;;;7.03;3.43;;;20.20;50.90;;;;;;5013990;28;20214;-79
2023/06/03 00:24:14;;;;;;;6.03;3.00;;;20.20;50.80;;;;;;5012948;28;20237;-80
2023/06/03 00:26:41;;;;;;;6.63;3.50;;;20.20;50.90;;;;;;5013006;28;20278;-80
2023/06/03 00:29:08;;;;;;;8.43;3.27;;;20.20;50.80;;;;;;5013567;28;20237;-79
2023/06/03 00:31:35;;;;;;;5.63;3.30;;;20.20;50.70;;;;;;4996121;28;20211;-80
2023/06/03 00:34:02;;;;;;;7.40;2.80;;;20.20;51.00;;;;;;5007086;28;20533;-78
2023/06/03 00:36:29;;;;;;;4.27;3.13;;;20.10;51.60;;;;;;5011735;28;20223;-80
2023/06/03 00:38:57;;;;;;;4.70;3.07;;;20.10;51.20;;;;;;5013379;28;20198;-80
2023/06/03 00:41:25;;;;;;;5.27;3.23;;;20.10;51.30;;;;;;5013298;28;20235;-78
2023/06/03 00:43:52;;;;;;;5.27;3.13;;;20.00;51.30;;;;;;4994991;28;20211;-80
2023/06/03 00:46:21;;;;;;;8.70;3.07;;;20.00;51.20;;;;;;5013514;28;20318;-80
2023/06/03 00:48:50;;;;;;;4.73;3.10;;;20.00;51.20;;;;;;5013470;28;20199;-79
2023/06/03 00:51:17;;;;;;;5.73;2.97;;;20.00;51.10;;;;;;5013107;28;20294;-79
2023/06/03 00:53:45;;;;;;;8.17;2.90;;;19.90;51.30;;;;;;5013448;28;20210;-79
2023/06/03 00:56:14;;;;;;;5.03;2.77;;;19.90;51.30;;;;;;5012894;28;20233;-78
2023/06/03 00:58:41;;;;;;;8.67;3.23;;;19.90;51.30;;;;;;5013413;28;20547;-79
2023/06/03 01:01:08;;;;;;;7.30;3.63;;;19.90;51.40;;;;;;5012267;28;20777;-79
2023/06/03 01:03:36;;;;;;;4.90;3.27;;;19.80;51.50;;;;;;5012735;28;20603;-79
2023/06/03 01:06:14;;;;;;;6.27;3.00;;;19.80;51.50;;;;;;5007502;28;20257;-81
2023/06/03 01:08:51;;;;;;;8.17;3.23;;;19.70;51.70;;;;;;5009957;28;20598;-81
2023/06/03 01:11:28;;;;;;;6.03;3.00;;;19.70;51.90;;;;;;5012680;28;20187;-80
2023/06/03 01:14:05;;;;;;;7.10;3.20;;;19.60;52.00;;;;;;5013207;28;20205;-80
2023/06/03 01:16:34;;;;;;;5.33;3.33;;;19.60;51.70;;;;;;5012687;28;20560;-79
2023/06/03 01:19:04;;;;;;;7.03;3.40;;;19.60;52.90;;;;;;4978479;28;20222;-81
2023/06/03 01:21:38;;;;;;;4.50;3.20;;;19.50;52.40;;;;;;5012739;28;20203;-81
2023/06/03 01:24:06;;;;;;;5.60;3.40;;;19.50;53.10;;;;;;5012605;28;20268;-79
2023/06/03 01:26:34;;;;;;;6.43;2.90;;;19.40;52.80;;;;;;5011019;28;20238;-79
2023/06/03 01:29:01;;;;;;;5.43;2.90;;;19.40;52.80;;;;;;5012564;28;20685;-78
2023/06/03 01:31:28;;;;;;;6.33;3.23;;;19.30;52.80;;;;;;5012644;28;20253;-80
2023/06/03 01:33:55;;;;;;;7.73;3.73;;;19.30;52.90;;;;;;5013058;28;20199;-78
2023/06/03 01:36:22;;;;;;;4.57;3.33;;;19.30;53.20;;;;;;5012757;28;20223;-78
2023/06/03 01:38:50;;;;;;;5.63;3.03;;;19.20;53.20;;;;;;5013078;28;20207;-79
2023/06/03 01:41:18;;;;;;;5.00;3.63;;;19.20;53.50;;;;;;5012802;28;20207;-79
2023/06/03 01:43:45;;;;;;;4.17;3.00;;;19.20;53.50;;;;;;5013413;28;20230;-78
2023/06/03 01:46:12;;;;;;;5.77;3.30;;;19.10;53.40;;;;;;5012700;28;20210;-80
2023/06/03 01:48:39;;;;;;;4.57;3.10;;;19.10;53.60;;;;;;5011799;28;20671;-79
2023/06/03 01:51:07;;;;;;;4.97;3.20;;;19.00;53.50;;;;;;5012715;28;20211;-80
2023/06/03 01:53:34;;;;;;;7.33;3.70;;;19.00;53.70;;;;;;5012431;28;20199;-79
2023/06/03 01:56:01;;;;;;;6.90;3.67;;;19.00;53.70;;;;;;5012455;28;20861;-79
2023/06/03 01:58:30;;;;;;;6.13;3.13;;;18.90;53.90;;;;;;5003663;28;20211;-79
2023/06/03 02:00:57;;;;;;;5.20;3.10;;;18.90;54.50;;;;;;4991572;28;20469;-77
2023/06/03 02:03:24;;;;;;;4.20;2.97;;;18.90;54.10;;;;;;4992750;28;20244;-79
2023/06/03 02:05:52;;;;;;;4.63;3.27;;;18.80;54.20;;;;;;5012706;28;20195;-79
2023/06/03 02:08:19;;;;;;;6.77;3.47;;;18.80;54.40;;;;;;5012884;28;20203;-80
2023/06/03 02:10:46;;;;;;;5.80;3.50;;;18.70;54.30;;;;;;5011620;28;20669;-78
2023/06/03 02:13:13;;;;;;;6.27;2.90;;;18.70;54.50;;;;;;5012030;28;20210;-78
2023/06/03 02:15:42;;;;;;;6.10;3.33;;;18.70;54.60;;;;;;5012100;28;20306;-80
2023/06/03 02:18:09;;;;;;;4.63;3.30;;;18.70;54.60;;;;;;5016598;28;20199;-80
2023/06/03 02:20:37;;;;;;;6.50;3.63;;;18.70;54.80;;;;;;5016200;28;20273;-79
2023/06/03 02:23:04;;;;;;;7.70;3.70;;;18.60;55.00;;;;;;5015939;28;20489;-80
2023/06/03 02:25:32;;;;;;;6.37;3.43;;;18.60;55.00;;;;;;5015356;28;20476;-78
2023/06/03 02:27:59;;;;;;;6.50;3.40;;;18.50;55.20;;;;;;5015990;28;20458;-78
2023/06/03 02:30:26;;;;;;;6.03;3.20;;;18.50;55.30;;;;;;5015788;28;20457;-79
2023/06/03 02:32:54;;;;;;;3.87;3.07;;;18.50;55.40;;;;;;5015759;28;20606;-79
2023/06/03 02:35:21;;;;;;;5.47;3.60;;;18.40;55.60;;;;;;5013281;28;20560;-78
2023/06/03 02:37:48;;;;;;;5.67;3.30;;;18.40;55.70;;;;;;5016062;28;20462;-81
2023/06/03 02:40:15;;;;;;;6.53;3.60;;;18.30;55.70;;;;;;5015764;28;20454;-78
2023/06/03 02:42:42;;;;;;;5.10;3.30;;;18.30;55.70;;;;;;5015854;28;20195;-79
2023/06/03 02:45:10;;;;;;;5.43;3.27;;;18.20;55.80;;;;;;5015628;28;20545;-78
2023/06/03 02:47:37;;;;;;;6.03;3.37;;;18.20;56.00;;;;;;5014104;28;20226;-78
2023/06/03 02:50:06;;;;;;;6.03;3.40;;;18.10;56.00;;;;;;5015788;28;20541;-77
2023/06/03 02:52:35;;;;;;;5.50;3.47;;;18.10;56.20;;;;;;5015898;28;20203;-78
2023/06/03 02:55:02;;;;;;;7.87;3.90;;;18.00;56.20;;;;;;5014777;28;21195;-79
2023/06/03 02:57:29;;;;;;;6.60;3.40;;;18.00;56.50;;;;;;5015304;28;20462;-78
2023/06/03 02:59:56;;;;;;;5.37;3.27;;;18.00;57.10;;;;;;5015651;28;20258;-78
2023/06/03 03:02:24;;;;;;;4.20;2.77;;;17.90;56.50;;;;;;5014904;28;20203;-79
2023/06/03 03:04:52;;;;;;;4.43;3.03;;;17.90;56.70;;;;;;5015912;28;20840;-79
2023/06/03 03:07:20;;;;;;;6.37;3.40;;;17.90;56.70;;;;;;5015702;28;20458;-79
2023/06/03 03:09:47;;;;;;;6.37;3.00;;;17.90;56.80;;;;;;5014961;28;20853;-77
2023/06/03 03:12:14;;;;;;;4.87;3.30;;;17.90;56.80;;;;;;5003923;28;21082;-79
2023/06/03 03:14:41;;;;;;;5.33;2.97;;;17.90;56.80;;;;;;5014898;28;20206;-79
2023/06/03 03:17:08;;;;;;;4.90;2.90;;;17.90;56.90;;;;;;5014696;28;20482;-79
2023/06/03 03:19:35;;;;;;;6.03;3.30;;;17.80;56.90;;;;;;5015629;28;20842;-79
2023/06/03 03:22:02;;;;;;;6.37;3.10;;;17.80;57.00;;;;;;5015101;28;20458;-79
2023/06/03 03:24:31;;;;;;;5.70;3.37;;;17.80;57.10;;;;;;5008714;28;20219;-79
2023/06/03 03:26:58;;;;;;;10.40;3.47;;;17.80;57.30;;;;;;5014867;28;20458;-79
2023/06/03 03:29:25;;;;;;;6.17;3.30;;;17.70;57.30;;;;;;5013253;28;20513;-79
2023/06/03 03:31:54;;;;;;;5.73;3.00;;;17.70;57.50;;;;;;5012685;28;20464;-78
2023/06/03 03:34:21;;;;;;;3.97;2.80;;;17.70;57.60;;;;;;5013585;28;20980;-80
2023/06/03 03:36:49;;;;;;;5.73;3.07;;;17.60;57.60;;;;;;5013415;28;20527;-79
2023/06/03 03:39:16;;;;;;;5.77;3.03;;;17.60;57.70;;;;;;5014784;28;20462;-78
2023/06/03 03:41:44;;;;;;;5.63;3.13;;;17.70;57.80;;;;;;5015187;28;20456;-78
2023/06/03 03:44:13;;;;;;;5.23;3.60;;;17.60;57.80;;;;;;5014008;28;20461;-79
2023/06/03 03:46:47;;;;;;;3.60;2.90;;;17.60;57.90;;;;;;5014741;28;20454;-79
2023/06/03 03:49:27;;;;;;;4.63;3.40;;;17.60;58.00;;;;;;5012684;28;20479;-79
2023/06/03 03:51:54;;;;;;;6.70;3.80;;;17.60;58.10;;;;;;5013209;28;20454;-79
2023/06/03 03:54:23;;;;;;;6.47;3.23;;;17.60;58.00;;;;;;5012315;28;20549;-79
2023/06/03 03:56:55;;;;;;;6.87;3.27;;;17.70;58.20;;;;;;5013748;28;20485;-78
2023/06/03 03:59:22;;;;;;;3.90;2.97;;;17.70;58.30;;;;;;5014720;28;20461;-79
2023/06/03 04:01:49;;;;;;;5.13;3.50;;;17.70;58.30;;;;;;5014215;28;20450;-79
2023/06/03 04:04:36;;;;;;;4.77;3.30;;;17.70;58.40;;;;;;5014239;28;20567;-79
2023/06/03 04:07:03;;;;;;;7.73;3.43;;;17.70;58.50;;;;;;5013998;28;20450;-80
2023/06/03 04:09:30;;;;;;;5.70;2.90;;;17.70;58.50;;;;;;5013684;28;20490;-79
2023/06/03 04:12:01;;;;;;;7.00;3.40;;;17.70;58.50;;;;;;5014052;28;20490;-78
2023/06/03 04:14:44;;;;;;;6.93;3.40;;;17.70;58.70;;;;;;5014276;28;20490;-79
2023/06/03 04:17:13;;;;;;;4.57;2.70;;;17.70;59.40;;;;;;5014331;28;20227;-79
2023/06/03 04:19:41;;;;;;;6.13;3.30;;;17.80;58.70;;;;;;5014278;28;20462;-80
2023/06/03 04:22:10;;;;;;;9.50;3.70;;;17.80;58.70;;;;;;5013760;28;20453;-78
2023/06/03 04:24:38;;;;;;;7.27;3.43;;;17.80;59.10;;;;;;5013548;28;20544;-80
2023/06/03 04:27:08;;;;;;;11.17;3.90;;;17.70;59.70;;;;;;5014002;28;20810;-79
2023/06/03 04:29:35;;;;;;;9.07;3.67;;;17.80;59.80;;;;;;5013432;28;20455;-79
2023/06/03 04:32:02;;;;;;;7.57;3.40;;;17.80;59.80;;;;;;5006031;28;20461;-80
2023/06/03 04:34:30;;;;;;;6.30;3.03;;;17.90;59.90;;;;;;5013568;28;20457;-80
2023/06/03 04:36:57;;;;;;;5.57;3.13;;;17.90;59.90;;;;;;5012970;28;20488;-79
2023/06/03 04:39:24;;;;;;;7.27;3.27;;;17.90;59.90;;;;;;5013379;28;20203;-80
2023/06/03 04:41:52;;;;;;;6.63;3.73;;;17.90;59.90;;;;;;5013141;28;20450;-79
2023/06/03 04:44:21;;;;;;;7.13;3.30;;;17.90;60.30;;;;;;5002394;28;20528;-79
2023/06/03 04:46:49;;;;;;;8.27;3.73;;;18.00;60.70;;;;;;5012984;28;21005;-79
2023/06/03 04:49:16;;;;;;;8.30;3.60;;;18.00;60.80;;;;;;5011747;28;20465;-79
2023/06/03 04:51:44;;;;;;;7.07;3.43;;;18.00;60.80;;;;;;5013246;28;20465;-79
2023/06/03 04:54:11;;;;;;;7.73;3.67;;;18.10;61.00;;;;;;5013588;28;20462;-79
2023/06/03 04:56:37;;;;;;;10.03;4.37;;;18.10;61.40;;;;;;5013669;28;20529;-80
2023/06/03 04:59:06;;;;;;;12.83;4.97;;;18.10;61.30;;;;;;5013936;28;20454;-79
2023/06/03 05:01:36;;;;;;;12.07;4.83;;;18.20;61.90;;;;;;5012954;28;20225;-79
2023/06/03 05:04:03;;;;;;;10.90;5.10;;;18.20;61.90;;;;;;4999960;28;20494;-79
2023/06/03 05:06:32;;;;;;;20.60;6.77;;;18.30;62.20;;;;;;5013479;28;20908;-79
2023/06/03 05:08:59;;;;;;;7.30;3.90;;;18.30;62.50;;;;;;5013746;28;20972;-78
2023/06/03 05:11:26;;;;;;;5.77;3.60;;;18.30;61.60;;;;;;5013698;28;20791;-79
2023/06/03 05:13:53;;;;;;;4.63;3.17;;;18.40;61.10;;;;;;5011307;28;20495;-78
2023/06/03 05:16:20;;;;;;;8.03;3.73;;;18.40;60.30;;;;;;5013617;28;20565;-78
2023/06/03 05:18:48;;;;;;;4.80;2.97;;;18.50;60.40;;;;;;5012766;28;20199;-79
2023/06/03 05:21:19;;;;;;;5.13;3.20;;;18.60;60.40;;;;;;5013613;28;20681;-79
2023/06/03 05:23:46;;;;;;;4.50;3.00;;;18.60;60.00;;;;;;5013498;28;20222;-80
2023/06/03 05:26:13;;;;;;;3.73;3.07;;;18.70;60.40;;;;;;5012824;28;20226;-81
2023/06/03 05:28:40;;;;;;;7.57;3.47;;;18.70;59.60;;;;;;5013416;28;20293;-80
2023/06/03 05:31:07;;;;;;;7.17;3.00;;;18.80;60.00;;;;;;5012996;28;21001;-78
2023/06/03 05:33:35;;;;;;;5.10;3.30;;;18.90;59.70;;;;;;5008620;28;20206;-80
2023/06/03 05:36:03;;;;;;;5.33;3.03;;;19.00;59.50;;;;;;4993923;28;20208;-79
2023/06/03 05:38:31;;;;;;;5.80;3.67;;;19.00;59.50;;;;;;4994081;28;20234;-79
2023/06/03 05:40:59;;;;;;;5.73;3.03;;;19.10;59.60;;;;;;4993956;28;20672;-80
2023/06/03 05:43:26;;;;;;;6.80;3.50;;;19.10;60.00;;;;;;5011160;28;20242;-81
2023/06/03 05:45:53;;;;;;;5.40;3.10;;;19.20;59.10;;;;;;5012595;28;20221;-79
2023/06/03 05:48:20;;;;;;;7.90;3.27;;;19.30;59.00;;;;;;5013128;28;20210;-79
2023/06/03 05:50:50;;;;;;;5.67;3.80;;;19.40;59.40;;;;;;5000057;28;20307;-79
2023/06/03 05:53:20;;;;;;;6.07;3.53;;;19.40;59.20;;;;;;4994089;28;20196;-80
2023/06/03 05:55:47;;;;;;;6.67;3.70;;;19.50;59.00;;;;;;4994377;28;20210;-80
2023/06/03 05:58:14;;;;;;;5.67;3.23;;;19.50;58.80;;;;;;4993790;28;20235;-80
2023/06/03 06:00:41;;;;;;;6.03;3.33;;;19.60;58.50;;;;;;4993697;28;20671;-76
2023/06/03 06:03:08;;;;;;;8.13;2.97;;;19.70;58.70;;;;;;5010108;28;20351;-77
2023/06/03 06:05:35;;;;;;;3.83;2.90;;;19.70;58.30;;;;;;5011802;28;20207;-79
2023/06/03 06:08:02;;;;;;;6.37;3.20;;;19.80;58.20;;;;;;5012709;28;20674;-80
2023/06/03 06:10:30;;;;;;;6.33;3.40;;;19.90;58.40;;;;;;5012747;28;20589;-76
2023/06/03 06:12:57;;;;;;;7.67;3.73;;;19.90;58.00;;;;;;5012507;28;20558;-76
2023/06/03 06:15:24;;;;;;;6.83;3.90;;;20.00;57.70;;;;;;5012989;28;20205;-80
2023/06/03 06:17:51;;;;;;;9.40;3.43;;;20.00;57.80;;;;;;5012239;28;20603;-79
2023/06/03 06:20:18;;;;;;;6.27;3.37;;;20.10;57.70;;;;;;5012398;28;20207;-77
2023/06/03 06:22:48;;;;;;;7.33;3.20;;;20.10;57.60;;;;;;5012644;28;20217;-78
2023/06/03 06:25:16;;;;;;;5.23;3.77;;;20.20;57.60;;;;;;5009533;28;20576;-79
2023/06/03 06:27:44;;;;;;;5.70;3.10;;;20.30;57.50;;;;;;5013077;28;20202;-77
2023/06/03 06:30:14;;;;;;;4.87;3.40;;;20.30;57.30;;;;;;5012876;28;20235;-80
2023/06/03 06:32:47;;;;;;;7.60;3.57;;;20.40;57.30;;;;;;5012740;28;20207;-77
2023/06/03 06:35:15;;;;;;;7.40;3.20;;;20.40;57.30;;;;;;5008376;28;20541;-79
2023/06/03 06:37:42;;;;;;;4.43;2.97;;;20.50;56.80;;;;;;5013119;28;20699;-80
2023/06/03 06:40:17;;;;;;;4.20;3.10;;;20.60;56.50;;;;;;5012083;28;20207;-79
2023/06/03 06:42:46;;;;;;;4.43;2.90;;;20.60;56.30;;;;;;5012224;28;20551;-79
2023/06/03 06:45:17;;;;;;;4.83;3.43;;;20.70;56.40;;;;;;4991549;28;20203;-80
2023/06/03 06:47:44;;;;;;;3.20;2.90;;;20.70;56.30;;;;;;5005897;28;20202;-77
2023/06/03 06:50:30;;;;;;;6.83;3.33;;;20.80;56.40;;;;;;5011594;28;20223;-79
2023/06/03 06:52:57;;;;;;;6.73;3.40;;;20.90;55.60;;;;;;4996549;28;20765;-77
2023/06/03 06:55:41;;;;;;;7.10;3.50;;;21.00;55.80;;;;;;5012643;28;20386;-80
2023/06/03 06:58:11;;;;;;;5.77;3.20;;;21.00;55.90;;;;;;5012933;28;20337;-77
2023/06/03 07:00:38;;;;;;;5.17;3.40;;;21.10;56.20;;;;;;5010543;28;20608;-78
2023/06/03 07:03:07;;;;;;;4.60;3.37;;;21.20;55.40;;;;;;5013738;28;20208;-80
2023/06/03 07:05:34;;;;;;;5.23;3.57;;;21.30;55.20;;;;;;5023275;28;20231;-79
2023/06/03 07:08:01;;;;;;;6.27;3.20;;;21.30;55.30;;;;;;5034211;28;20196;-78
2023/06/03 07:10:28;;;;;;;5.77;3.50;;;21.50;55.20;;;;;;5031076;28;20295;-78
2023/06/03 07:12:56;;;;;;;7.10;4.07;;;21.50;55.30;;;;;;5020133;28;20287;-78
2023/06/03 07:15:24;;;;;;;7.10;3.60;;;21.60;54.70;;;;;;5029438;28;20206;-79
2023/06/03 07:17:52;;;;;;;6.33;3.83;;;21.60;54.70;;;;;;5027566;28;20206;-77
2023/06/03 07:20:21;;;;;;;5.47;3.47;;;21.70;54.70;;;;;;5024652;28;20259;-77
2023/06/03 07:22:48;;;;;;;5.27;3.27;;;21.80;54.80;;;;;;5016284;28;20199;-76
2023/06/03 07:25:26;;;;;;;4.80;3.23;;;21.80;54.40;;;;;;5016026;28;20320;-78
2023/06/03 07:27:52;;;;;;;7.60;3.90;;;21.90;54.40;;;;;;5015739;28;20286;-77
2023/06/03 07:30:20;;;;;;;5.70;3.70;;;22.00;54.40;;;;;;5008801;28;20208;-78
2023/06/03 07:32:48;;;;;;;5.17;3.60;;;22.00;54.40;;;;;;5001490;28;20199;-78
2023/06/03 07:35:18;;;;;;;5.70;3.60;;;22.10;54.20;;;;;;5011771;28;20731;-79
2023/06/03 07:37:45;;;;;;;5.57;3.37;;;22.20;54.20;;;;;;4996528;28;20228;-78
2023/06/03 07:40:15;;;;;;;8.13;3.43;;;22.30;54.00;;;;;;4996295;28;20214;-79
2023/06/03 07:42:44;;;;;;;5.03;3.50;;;22.40;54.30;;;;;;4996061;28;20204;-79
2023/06/03 07:45:13;;;;;;;7.70;3.87;;;22.50;53.80;;;;;;4996373;28;20287;-77
2023/06/03 07:47:40;;;;;;;6.57;3.23;;;22.50;53.90;;;;;;5001372;28;20206;-76
2023/06/03 07:50:21;;;;;;;7.07;3.30;;;22.60;53.40;;;;;;5014882;28;20590;-80
2023/06/03 07:52:47;;;;;;;4.40;2.93;;;22.80;54.00;;;;;;5015185;28;20195;-72
2023/06/03 07:55:15;;;;;;;6.17;3.13;;;22.90;53.90;;;;;;5014417;28;20230;-75
2023/06/03 07:57:46;;;;;;;5.30;3.90;;;23.00;53.90;;;;;;5015160;28;20254;-79
2023/06/03 08:00:17;;;;;;;7.07;3.67;;;23.00;53.30;;;;;;4984936;28;20222;-71
2023/06/03 08:02:44;;;;;;;7.63;3.43;;;23.20;54.00;;;;;;4997319;28;20189;-82
2023/06/03 08:05:13;;;;;;;8.93;3.47;;;23.30;53.80;;;;;;4970275;28;20204;-79
2023/06/03 08:07:43;;;;;;;4.93;3.07;;;23.40;53.50;;;;;;4995455;28;20327;-78
2023/06/03 08:10:21;;;;;;;6.07;3.63;;;23.50;52.50;;;;;;4995725;28;20208;-79
2023/06/03 08:12:48;;;;;;;6.93;3.30;;;23.50;52.60;;;;;;5013841;28;20281;-78
2023/06/03 08:15:26;;;;;;;8.33;3.37;;;23.50;52.30;;;;;;5009170;28;20210;-79
2023/06/03 08:17:53;;;;;;;5.50;3.70;;;23.50;52.40;;;;;;5001455;28;20222;-82
2023/06/03 08:20:26;;;;;;;6.33;3.37;;;23.60;52.70;;;;;;5014639;28;20302;-77
2023/06/03 08:22:54;;;;;;;6.93;4.00;;;23.70;52.70;;;;;;5015030;28;20219;-77
2023/06/03 08:25:21;;;;;;;5.10;3.30;;;23.80;52.80;;;;;;5014898;28;20231;-78
2023/06/03 08:27:48;;;;;;;6.00;3.13;;;23.90;52.30;;;;;;5010283;28;20199;-80
2023/06/03 08:30:16;;;;;;;6.50;3.63;;;24.00;52.60;;;;;;5014587;28;20290;-79
2023/06/03 08:32:44;;;;;;;9.80;4.27;;;24.10;52.20;;;;;;5012446;28;20273;-77
2023/06/03 08:35:12;;;;;;;5.10;3.27;;;24.10;52.20;;;;;;5012577;28;20282;-80
2023/06/03 08:37:42;;;;;;;6.53;3.77;;;24.10;51.90;;;;;;5014478;28;20223;-80
2023/06/03 08:40:10;;;;;;;5.20;3.47;;;24.20;51.50;;;;;;5013421;28;20209;-81
2023/06/03 08:42:42;;;;;;;5.77;3.77;;;24.30;52.00;;;;;;5014304;28;20239;-78
2023/06/03 08:45:10;;;;;;;7.53;3.90;;;24.40;51.80;;;;;;5014476;28;20224;-80
2023/06/03 08:47:51;;;;;;;4.10;3.20;;;24.40;52.00;;;;;;5014750;28;20265;-78
2023/06/03 08:50:21;;;;;;;5.97;3.57;;;24.50;51.10;;;;;;5014326;28;20211;-79
2023/06/03 08:52:53;;;;;;;6.27;3.40;;;24.60;51.80;;;;;;5014505;28;20223;-79
2023/06/03 08:55:21;;;;;;;7.13;3.90;;;24.70;51.40;;;;;;4998008;28;20234;-81
2023/06/03 08:57:59;;;;;;;5.07;3.50;;;24.70;51.10;;;;;;4994926;28;20314;-80
2023/06/03 09:00:27;;;;;;;4.50;3.57;;;24.80;51.90;;;;;;4995121;28;20218;-78
2023/06/03 09:02:55;;;;;;;5.30;3.50;;;24.80;50.50;;;;;;5008456;28;20288;-78
2023/06/03 09:05:22;;;;;;;6.43;3.83;;;24.90;51.30;;;;;;5008285;28;20203;-79
2023/06/03 09:07:51;;;;;;;5.37;3.20;;;25.00;51.50;;;;;;5013962;28;20195;-77
2023/06/03 09:10:20;;;;;;;8.30;3.87;;;25.10;50.30;;;;;;4999770;28;20633;-76
2023/06/03 09:12:48;;;;;;;5.97;3.87;;;25.10;50.10;;;;;;4999678;28;20206;-80
2023/06/03 09:15:16;;;;;;;8.53;3.60;;;25.20;50.20;;;;;;4996408;28;20672;-80
2023/06/03 09:17:43;;;;;;;6.90;3.63;;;25.30;50.60;;;;;;5013834;28;20234;-79
2023/06/03 09:20:11;;;;;;;4.03;3.43;;;25.40;50.90;;;;;;5013889;28;20299;-79
2023/06/03 09:22:39;;;;;;;5.23;3.60;;;25.40;50.00;;;;;;5013991;28;20207;-77
2023/06/03 09:25:09;;;;;;;5.80;4.10;;;25.50;50.10;;;;;;5001884;28;20255;-81
2023/06/03 09:27:36;;;;;;;4.47;3.57;;;25.60;50.00;;;;;;5013183;28;20700;-81
2023/06/03 09:30:05;;;;;;;5.83;3.63;;;25.70;49.80;;;;;;5003956;28;20203;-81
2023/06/03 09:32:32;;;;;;;6.30;3.80;;;25.80;49.60;;;;;;4994164;28;20208;-79
2023/06/03 09:35:04;;;;;;;6.77;3.50;;;25.80;49.80;;;;;;5002994;28;21060;-79
2023/06/03 09:37:31;;;;;;;5.57;3.50;;;25.90;50.00;;;;;;5013893;28;20305;-79
2023/06/03 09:39:58;;;;;;;6.87;3.43;;;26.00;49.50;;;;;;5013874;28;20202;-79
2023/06/03 09:42:41;;;;;;;4.67;3.50;;;26.00;50.00;;;;;;5013523;28;20282;-80
2023/06/03 09:45:22;;;;;;;5.83;3.33;;;26.10;49.30;;;;;;5013698;28;20195;-77
2023/06/03 09:47:50;;;;;;;5.20;3.67;;;26.20;49.60;;;;;;5010270;28;20219;-79
2023/06/03 09:50:17;;;;;;;6.87;3.60;;;26.30;49.10;;;;;;5013810;28;20317;-79
2023/06/03 09:52:44;;;;;;;5.23;3.60;;;26.40;48.20;;;;;;5013537;28;20294;-78
2023/06/03 09:55:11;;;;;;;7.90;4.30;;;26.40;48.90;;;;;;5012372;28;20211;-78
2023/06/03 09:57:40;;;;;;;13.23;4.50;;;26.50;49.40;;;;;;5013358;28;20231;-80
2023/06/03 10:00:10;;;;;;;7.97;4.07;;;26.60;49.10;;;;;;5013421;28;20200;-80
2023/06/03 10:02:38;;;;;;;7.70;4.00;;;26.70;48.80;;;;;;5013715;28;20211;-77
2023/06/03 10:05:06;;;;;;;5.77;3.50;;;26.80;49.00;;;;;;5013384;28;20239;-78
2023/06/03 10:07:33;;;;;;;5.03;3.40;;;26.80;48.10;;;;;;5013665;28;20266;-81
2023/06/03 10:10:06;;;;;;;7.33;4.17;;;26.90;48.30;;;;;;5013306;28;20662;-79
2023/06/03 10:12:33;;;;;;;5.97;3.47;;;26.90;47.80;;;;;;5012845;28;20208;-78
2023/06/03 10:15:01;;;;;;;4.53;3.60;;;27.00;47.80;;;;;;5009886;28;20201;-79
2023/06/03 10:17:29;;;;;;;5.63;3.80;;;27.10;48.20;;;;;;4993227;28;20248;-77
2023/06/03 10:19:56;;;;;;;7.50;4.07;;;27.10;48.10;;;;;;5011160;28;20281;-80
2023/06/03 10:22:26;;;;;;;8.20;3.80;;;27.20;47.80;;;;;;5010642;28;20205;-80
2023/06/03 10:24:56;;;;;;;4.90;3.77;;;27.20;48.00;;;;;;5003597;28;20227;-76
2023/06/03 10:27:23;;;;;;;5.97;3.67;;;27.30;48.50;;;;;;5013068;28;20189;-78
2023/06/03 10:29:53;;;;;;;5.77;3.80;;;27.40;47.70;;;;;;5013004;28;20208;-79
2023/06/03 10:32:24;;;;;;;8.33;3.80;;;27.50;48.10;;;;;;5013368;28;20606;-79
2023/06/03 10:34:51;;;;;;;4.80;3.83;;;27.50;48.10;;;;;;4985912;28;20209;-78
2023/06/03 10:37:19;;;;;;;5.27;3.93;;;27.70;47.60;;;;;;4976542;28;20214;-80
2023/06/03 10:39:46;;;;;;;6.33;3.80;;;27.80;48.80;;;;;;4996040;28;20585;-78
2023/06/03 10:42:14;;;;;;;5.57;3.97;;;27.90;48.00;;;;;;4997292;28;20255;-84
2023/06/03 10:44:41;;;;;;;5.73;4.00;;;28.00;47.40;;;;;;4996658;28;20220;-81
2023/06/03 10:47:12;;;;;;;7.90;4.47;;;28.00;47.20;;;;;;4997185;28;20298;-80
2023/06/03 10:49:48;;;;;;;6.30;3.77;;;28.10;47.00;;;;;;4997291;28;20217;-80
2023/06/03 10:52:49;;;;;;;5.90;3.80;;;28.10;47.00;;;;;;4997335;28;20194;-80
2023/06/03 10:55:28;;;;;;;5.33;3.93;;;28.10;47.20;;;;;;4995866;28;20573;-79
2023/06/03 10:58:01;;;;;;;5.77;3.37;;;28.20;46.80;;;;;;4998078;28;20766;-79
2023/06/03 11:00:53;;;;;;;5.97;4.33;;;28.30;46.30;;;;;;5016355;28;20268;-79
2023/06/03 11:03:22;;;;;;;6.40;4.07;;;28.40;46.70;;;;;;4996948;28;20239;-79
2023/06/03 11:05:51;;;;;;;6.33;3.80;;;28.30;45.90;;;;;;4997172;28;20269;-78
2023/06/03 11:08:57;;;;;;;8.63;3.93;;;28.40;46.20;;;;;;4996785;28;20318;-78
2023/06/03 11:11:58;;;;;;;7.83;4.60;;;28.40;45.70;;;;;;5002994;28;20197;-79
2023/06/03 11:14:51;;;;;;;4.30;3.90;;;28.40;46.20;;;;;;5009489;28;20246;-80
2023/06/03 11:17:19;;;;;;;5.73;3.90;;;28.50;46.70;;;;;;5004539;28;20233;-77
2023/06/03 11:19:50;;;;;;;4.73;3.73;;;28.60;46.00;;;;;;5013137;28;20734;-77
2023/06/03 11:22:41;;;;;;;6.27;4.13;;;28.60;46.70;;;;;;5010311;28;20206;-78
2023/06/03 11:25:09;;;;;;;8.43;4.83;;;28.70;46.80;;;;;;5016335;28;20227;-79
2023/06/03 11:27:37;;;;;;;5.73;4.17;;;28.80;46.60;;;;;;5015975;28;20206;-81
2023/06/03 11:30:07;;;;;;;4.27;3.67;;;28.90;46.50;;;;;;5016188;28;20210;-81
2023/06/03 11:32:36;;;;;;;5.27;4.40;;;29.00;46.10;;;;;;5012248;28;20207;-77
2023/06/03 11:35:28;;;;;;;5.33;4.03;;;29.00;45.50;;;;;;5005030;28;20221;-77
2023/06/03 11:37:57;;;;;;;4.93;3.90;;;29.10;45.30;;;;;;5008857;28;20210;-75
2023/06/03 11:40:24;;;;;;;5.03;3.70;;;29.10;45.40;;;;;;5015919;28;20296;-80
2023/06/03 11:43:07;;;;;;;5.20;4.13;;;29.00;45.00;;;;;;5015975;28;20240;-81
2023/06/03 11:45:36;;;;;;;5.00;4.13;;;29.10;44.70;;;;;;4981536;28;20213;-76
2023/06/03 11:48:05;;;;;;;6.57;4.50;;;29.10;45.40;;;;;;5011969;28;20600;-78
2023/06/03 11:50:33;;;;;;;5.87;4.40;;;29.20;45.30;;;;;;4994619;28;20227;-78
2023/06/03 11:53:02;;;;;;;4.37;3.63;;;29.20;45.10;;;;;;4995136;28;20202;-77
2023/06/03 11:55:31;;;;;;;4.73;3.77;;;29.30;45.30;;;;;;4996055;28;20262;-78
2023/06/03 11:58:09;;;;;;;6.00;4.17;;;29.40;45.30;;;;;;5002330;28;20233;-77
2023/06/03 12:00:37;;;;;;;6.17;4.43;;;29.50;45.30;;;;;;4996254;28;20798;-76
2023/06/03 12:03:04;;;;;;;6.33;4.43;;;29.60;45.10;;;;;;4993012;28;20280;-77
2023/06/03 12:05:31;;;;;;;6.13;4.87;;;29.60;44.90;;;;;;4977524;28;20211;-77
2023/06/03 12:08:01;;;;;;;4.93;4.20;;;29.60;44.10;;;;;;5004739;28;20196;-75
2023/06/03 12:10:29;;;;;;;7.80;4.40;;;29.70;44.40;;;;;;4995301;28;20322;-74
2023/06/03 12:12:57;;;;;;;4.67;4.00;;;29.70;44.30;;;;;;5007767;28;20667;-78
2023/06/03 12:15:25;;;;;;;4.67;3.93;;;29.80;44.20;;;;;;5014535;28;20217;-78
2023/06/03 12:17:52;;;;;;;5.27;4.30;;;29.90;44.60;;;;;;5014605;28;20321;-78
2023/06/03 12:20:26;;;;;;;5.87;3.97;;;29.90;44.30;;;;;;5009141;28;20231;-80
2023/06/03 12:23:01;;;;;;;4.90;4.13;;;29.90;43.90;;;;;;5001614;28;20285;-74
2023/06/03 12:25:28;;;;;;;5.20;4.10;;;29.90;43.90;;;;;;5011649;28;20252;-74
2023/06/03 12:27:56;;;;;;;6.67;3.77;;;29.80;44.60;;;;;;5011663;28;20607;-76
2023/06/03 12:30:33;;;;;;;4.70;4.20;;;29.90;43.80;;;;;;5018969;28;20227;-75
2023/06/03 12:33:01;;;;;;;4.33;3.93;;;29.90;43.60;;;;;;5010963;28;20285;-75
2023/06/03 12:35:29;;;;;;;5.73;4.07;;;30.00;44.60;;;;;;5012824;28;20203;-74
2023/06/03 12:38:08;;;;;;;4.63;4.20;;;30.10;44.50;;;;;;4993322;28;20848;-74
2023/06/03 12:40:36;;;;;;;5.33;4.33;;;30.20;44.40;;;;;;5008611;28;20295;-75
2023/06/03 12:43:04;;;;;;;5.77;4.13;;;30.30;43.90;;;;;;4993824;28;20230;-74
2023/06/03 12:45:31;;;;;;;5.43;4.13;;;30.40;44.10;;;;;;5002518;28;20208;-75
2023/06/03 12:47:58;;;;;;;7.13;4.20;;;30.50;44.00;;;;;;4998510;28;20194;-75
2023/06/03 12:50:33;;;;;;;5.63;4.50;;;30.50;43.90;;;;;;5012442;28;20538;-76
2023/06/03 12:53:14;;;;;;;5.27;4.23;;;30.60;43.50;;;;;;5012668;28;20616;-76
2023/06/03 12:55:41;;;;;;;5.03;4.20;;;30.70;42.50;;;;;;4996674;28;20199;-75
2023/06/03 12:58:08;;;;;;;4.77;4.23;;;30.70;43.20;;;;;;4990873;28;20207;-75